createdAt,value
2018-07-14T00:04:11.466Z,19.70
2018-07-14T00:09:14.513Z,19.60
2018-07-14T00:14:17.476Z,19.60
2018-07-14T00:19:20.006Z,19.50
2018-07-14T00:24:23.101Z,19.40
2018-07-14T00:29:25.692Z,19.40
2018-07-14T00:34:29.049Z,19.20
2018-07-14T00:39:31.817Z,19.20
2018-07-14T00:44:34.694Z,19.20
2018-07-14T00:49:37.299Z,19.10
2018-07-14T00:54:39.865Z,19.10
2018-07-14T00:59:42.573Z,19.00
2018-07-14T01:04:45.101Z,19.00
2018-07-14T01:09:47.636Z,18.90
2018-07-14T01:14:50.116Z,18.90
2018-07-14T01:19:53.304Z,18.80
2018-07-14T01:24:56.556Z,18.70
2018-07-14T01:29:59.040Z,18.70
2018-07-14T01:35:01.525Z,18.70
2018-07-14T01:40:04.826Z,18.50
2018-07-14T01:45:07.309Z,18.50
2018-07-14T01:50:11.129Z,18.50
2018-07-14T01:55:16.494Z,18.50
2018-07-14T02:00:20.634Z,18.40
2018-07-14T02:05:24.710Z,18.40
2018-07-14T02:10:28.052Z,18.30
2018-07-14T02:15:31.508Z,18.30
2018-07-14T02:20:35.498Z,18.20
2018-07-14T02:25:38.218Z,18.20
2018-07-14T02:30:41.171Z,18.20
2018-07-14T02:35:44.669Z,18.10
2018-07-14T02:40:48.832Z,18.10
2018-07-14T02:45:53.255Z,18.00
2018-07-14T02:50:56.250Z,18.00
2018-07-14T02:55:59.403Z,17.90
2018-07-14T03:01:07.021Z,17.90
2018-07-14T03:06:11.110Z,17.80
2018-07-14T03:11:15.654Z,17.80
2018-07-14T03:16:18.794Z,17.80
2018-07-14T03:21:21.785Z,17.70
2018-07-14T03:26:25.117Z,17.70
2018-07-14T03:31:28.360Z,17.60
2018-07-14T03:36:30.846Z,17.60
2018-07-14T03:41:33.433Z,17.60
2018-07-14T03:46:36.761Z,17.50
2018-07-14T03:51:39.340Z,17.50
2018-07-14T03:56:41.826Z,17.40
2018-07-14T04:01:44.305Z,17.40
2018-07-14T04:06:46.839Z,17.40
2018-07-14T04:11:49.316Z,17.40
2018-07-14T04:16:51.804Z,17.40
2018-07-14T04:21:54.337Z,17.30
2018-07-14T04:26:57.648Z,17.30
2018-07-14T04:32:00.192Z,17.30
2018-07-14T04:37:02.628Z,17.30
2018-07-14T04:42:05.120Z,17.30
2018-07-14T04:47:07.894Z,17.40
2018-07-14T04:52:11.437Z,17.40
2018-07-14T04:57:14.310Z,17.50
2018-07-14T05:02:18.416Z,17.60
2018-07-14T05:07:22.151Z,17.70
2018-07-14T05:12:25.392Z,17.90
2018-07-14T05:17:27.941Z,17.90
2018-07-14T05:22:30.853Z,18.10
2018-07-14T05:27:33.350Z,18.20
2018-07-14T05:32:35.882Z,18.30
2018-07-14T05:37:38.552Z,18.50
2018-07-14T05:42:41.598Z,18.60
2018-07-14T05:47:45.244Z,18.90
2018-07-14T05:52:48.974Z,19.10
2018-07-14T05:57:52.811Z,19.30
2018-07-14T06:02:56.347Z,19.60
2018-07-14T06:07:59.064Z,19.90
2018-07-14T06:13:01.521Z,20.20
2018-07-14T06:18:04.059Z,20.40
2018-07-14T06:23:07.310Z,21.10
2018-07-14T06:28:09.877Z,21.00
2018-07-14T06:33:13.746Z,21.40
2018-07-14T06:38:16.425Z,21.70
2018-07-14T06:43:23.296Z,22.00
2018-07-14T06:48:25.804Z,22.40
2018-07-14T06:53:29.120Z,23.00
2018-07-14T06:58:31.761Z,23.00
2018-07-14T07:03:34.197Z,23.40
2018-07-14T07:08:36.710Z,23.60
2018-07-14T07:13:39.265Z,23.80
2018-07-14T07:18:42.521Z,24.00
2018-07-14T07:23:45.841Z,24.40
2018-07-14T07:28:49.252Z,24.80
2018-07-14T07:33:52.441Z,24.70
2018-07-14T07:38:54.853Z,25.10
2018-07-14T07:43:57.362Z,25.40
2018-07-14T07:48:59.877Z,25.70
2018-07-14T07:54:02.362Z,26.00
2018-07-14T07:59:04.918Z,26.40
2018-07-14T08:04:07.357Z,26.70
2018-07-14T08:09:10.060Z,27.10
2018-07-14T08:14:12.557Z,27.40
2018-07-14T08:19:15.045Z,27.70
2018-07-14T08:24:17.528Z,28.00
2018-07-14T08:29:20.094Z,28.20
2018-07-14T08:34:22.636Z,28.20
2018-07-14T08:39:25.129Z,28.30
2018-07-14T08:44:27.649Z,28.40
2018-07-14T08:49:30.965Z,28.50
2018-07-14T08:54:33.994Z,28.50
2018-07-14T08:59:36.485Z,28.50
2018-07-14T09:04:39.072Z,28.50
2018-07-14T09:09:41.577Z,28.70
2018-07-14T09:14:44.068Z,29.00
2018-07-14T09:19:47.785Z,29.50
2018-07-14T09:24:50.281Z,29.40
2018-07-14T09:29:52.787Z,29.80
2018-07-14T09:34:55.285Z,30.00
2018-07-14T09:39:57.782Z,30.30
2018-07-14T09:45:01.099Z,30.70
2018-07-14T09:50:03.908Z,30.60
2018-07-14T09:55:06.551Z,30.90
2018-07-14T10:00:09.014Z,31.00
2018-07-14T10:05:11.493Z,31.20
2018-07-14T10:10:14.746Z,31.50
2018-07-14T10:15:17.313Z,31.40
2018-07-14T10:20:19.908Z,31.50
2018-07-14T10:25:22.426Z,31.80
2018-07-14T10:30:25.733Z,32.10
2018-07-14T10:35:29.045Z,32.00
2018-07-14T10:40:31.525Z,32.00
2018-07-14T10:45:34.012Z,31.90
2018-07-14T10:50:36.541Z,31.90
2018-07-14T10:55:39.025Z,31.90
2018-07-14T11:00:41.530Z,31.80
2018-07-14T11:05:44.084Z,31.50
2018-07-14T11:10:46.585Z,31.30
2018-07-14T11:15:49.077Z,30.70
2018-07-14T11:20:51.561Z,30.40
2018-07-14T11:25:54.148Z,29.80
2018-07-14T11:30:57.438Z,29.00
2018-07-14T11:36:00.451Z,29.00
2018-07-14T11:41:03.023Z,28.60
2018-07-14T11:46:05.609Z,28.20
2018-07-14T11:51:08.172Z,27.90
2018-07-14T11:56:10.918Z,27.60
2018-07-14T12:01:13.454Z,27.40
2018-07-14T12:06:15.972Z,27.10
2018-07-14T12:11:18.537Z,26.80
2018-07-14T12:16:21.155Z,26.60
2018-07-14T12:21:23.698Z,26.40
2018-07-14T12:26:26.205Z,26.30
2018-07-14T12:31:28.777Z,26.10
2018-07-14T12:36:31.374Z,26.00
2018-07-14T12:41:33.929Z,26.00
2018-07-14T12:46:36.444Z,26.00
2018-07-14T12:51:38.957Z,26.10
2018-07-14T12:56:41.554Z,26.10
2018-07-14T13:01:44.154Z,26.10
2018-07-14T13:06:46.743Z,26.10
2018-07-14T13:11:49.247Z,26.10
2018-07-14T13:16:51.773Z,26.00
2018-07-14T13:21:54.389Z,26.00
2018-07-14T13:26:56.968Z,26.00
2018-07-14T13:31:59.482Z,25.90
2018-07-14T13:37:02.101Z,25.90
2018-07-14T13:42:04.674Z,25.90
2018-07-14T13:47:07.194Z,25.90
2018-07-14T13:52:09.701Z,25.90
2018-07-14T13:57:12.293Z,25.80
2018-07-14T14:02:16.474Z,25.90
2018-07-14T14:07:19.721Z,25.80
2018-07-14T14:12:22.286Z,25.90
2018-07-14T14:17:25.333Z,26.10
2018-07-14T14:22:27.880Z,26.20
2018-07-14T14:27:30.882Z,26.30
2018-07-14T14:32:33.762Z,26.40
2018-07-14T14:37:36.368Z,26.50
2018-07-14T14:42:39.146Z,26.70
2018-07-14T14:47:42.196Z,26.70
2018-07-14T14:52:44.929Z,26.70
2018-07-14T14:57:47.612Z,26.70
2018-07-14T15:02:51.546Z,26.70
2018-07-14T15:07:54.980Z,26.80
2018-07-14T15:12:57.782Z,26.80
2018-07-14T15:18:00.875Z,26.90
2018-07-14T15:23:03.971Z,26.90
2018-07-14T15:28:06.846Z,27.00
2018-07-14T15:33:09.722Z,27.00
2018-07-14T15:38:11.904Z,27.10
2018-07-14T15:43:15.293Z,27.20
2018-07-14T15:48:17.783Z,27.20
2018-07-14T15:53:20.316Z,27.20
2018-07-14T15:58:23.248Z,27.20
2018-07-14T16:03:26.233Z,27.10
2018-07-14T16:08:29.557Z,27.20
2018-07-14T16:13:32.152Z,27.10
2018-07-14T16:18:34.649Z,27.20
2018-07-14T16:23:37.140Z,27.20
2018-07-14T16:28:39.645Z,27.20
2018-07-14T16:33:42.134Z,27.20
2018-07-14T16:38:44.634Z,27.20
2018-07-14T16:43:47.117Z,27.30
2018-07-14T16:48:49.613Z,27.30
2018-07-14T16:53:52.133Z,27.30
2018-07-14T16:58:55.381Z,27.20
2018-07-14T17:03:57.873Z,27.20
2018-07-14T17:09:00.449Z,27.20
2018-07-14T17:14:03.078Z,27.20
2018-07-14T17:19:05.413Z,27.10
2018-07-14T17:24:07.934Z,27.10
2018-07-14T17:29:11.310Z,26.90
2018-07-14T17:34:14.077Z,26.90
2018-07-14T17:39:17.493Z,26.80
2018-07-14T17:44:20.054Z,26.70
2018-07-14T17:54:30.304Z,26.60
2018-07-14T17:59:34.683Z,26.50
2018-07-14T18:04:37.895Z,26.40
2018-07-14T18:09:42.154Z,26.30
2018-07-14T18:14:45.052Z,26.20
2018-07-14T18:19:47.702Z,26.10
2018-07-14T18:24:50.894Z,26.00
2018-07-14T18:29:54.531Z,25.90
2018-07-14T18:34:57.024Z,25.80
2018-07-14T18:40:00.276Z,25.60
2018-07-14T18:45:03.167Z,25.60
2018-07-14T18:50:05.664Z,25.50
2018-07-14T18:55:08.149Z,25.40
2018-07-14T19:00:10.634Z,25.30
2018-07-14T19:05:13.918Z,25.00
2018-07-14T19:10:16.401Z,25.00
2018-07-14T19:15:18.913Z,24.90
2018-07-14T19:20:21.405Z,24.80
2018-07-14T19:25:23.900Z,24.60
2018-07-14T19:30:27.138Z,24.50
2018-07-14T19:35:30.706Z,24.30
2018-07-14T19:40:34.632Z,24.20
2018-07-14T19:45:37.253Z,24.00
2018-07-14T19:50:40.130Z,23.90
2018-07-14T19:55:42.811Z,23.80
2018-07-14T20:00:47.334Z,23.60
2018-07-14T20:05:50.563Z,23.50
2018-07-14T20:10:53.197Z,23.30
2018-07-14T20:15:56.813Z,23.20
2018-07-14T20:20:59.684Z,23.10
2018-07-14T20:26:02.624Z,23.00
2018-07-14T20:31:05.864Z,22.90
2018-07-14T20:36:08.523Z,22.70
2018-07-14T20:41:11.507Z,22.60
2018-07-14T20:46:14.587Z,22.50
2018-07-14T20:51:17.400Z,22.40
2018-07-14T20:56:20.106Z,22.20
2018-07-14T21:01:22.903Z,22.10
2018-07-14T21:06:26.964Z,21.90
2018-07-14T21:11:29.938Z,21.90
2018-07-14T21:16:32.823Z,21.80
2018-07-14T21:21:35.437Z,21.70
2018-07-14T21:26:38.242Z,21.60
2018-07-14T21:31:41.855Z,21.50
2018-07-14T21:36:44.787Z,21.30
2018-07-14T21:41:48.377Z,21.20
2018-07-14T21:46:51.029Z,21.10
2018-07-14T21:51:53.724Z,21.00
2018-07-14T21:56:56.388Z,20.90
2018-07-14T22:01:59.473Z,20.80
2018-07-14T22:07:02.326Z,20.70
2018-07-14T22:12:05.777Z,20.60
2018-07-14T22:17:09.066Z,20.50
2018-07-14T22:22:12.095Z,20.40
2018-07-14T22:27:14.780Z,20.40
2018-07-14T22:32:17.756Z,20.30
2018-07-14T22:37:20.702Z,20.20
2018-07-14T22:42:23.534Z,20.20
2018-07-14T22:47:26.123Z,20.10
2018-07-14T22:52:32.535Z,20.10
2018-07-14T22:57:36.258Z,20.00
2018-07-14T23:02:39.610Z,19.90
2018-07-14T23:07:42.236Z,19.90
2018-07-14T23:12:44.833Z,19.80
2018-07-14T23:17:48.047Z,19.80
2018-07-14T23:22:51.022Z,19.70
2018-07-14T23:27:54.655Z,19.60
2018-07-14T23:32:58.065Z,19.60
2018-07-14T23:38:00.660Z,19.50
2018-07-14T23:43:03.791Z,19.50
2018-07-14T23:48:07.115Z,19.40
2018-07-14T23:53:09.733Z,19.40
2018-07-14T23:58:12.553Z,19.30
